createdAt,value
2022-09-10T00:04:46.455Z,0.90
2022-09-10T00:09:50.534Z,0.68
2022-09-10T00:14:54.405Z,0.43
2022-09-10T00:19:57.513Z,0.63
2022-09-10T00:25:05.042Z,0.60
2022-09-10T00:30:11.400Z,0.70
2022-09-10T00:35:14.016Z,0.65
2022-09-10T00:40:17.959Z,0.50
2022-09-10T00:45:21.644Z,0.55
2022-09-10T00:50:25.922Z,0.50
2022-09-10T00:55:31.625Z,0.65
2022-09-10T01:00:34.789Z,0.65
2022-09-10T01:05:38.282Z,0.73
2022-09-10T01:10:51.064Z,0.52
2022-09-10T01:15:56.929Z,0.50
2022-09-10T01:21:06.192Z,0.75
2022-09-10T01:26:20.244Z,0.60
2022-09-10T01:31:28.807Z,0.68
2022-09-10T01:36:36.657Z,0.73
2022-09-10T01:41:39.461Z,0.70
2022-09-10T01:46:49.294Z,0.68
2022-09-10T01:52:03.038Z,0.40
2022-09-10T01:57:11.858Z,0.60
2022-09-10T02:02:20.722Z,0.60
2022-09-10T02:07:25.260Z,0.80
2022-09-10T02:12:29.113Z,0.52
2022-09-10T02:17:42.399Z,0.52
2022-09-10T02:22:49.857Z,0.80
2022-09-10T02:27:54.937Z,0.50
2022-09-10T02:32:59.098Z,0.50
2022-09-10T02:38:01.798Z,0.68
2022-09-10T02:43:05.072Z,0.60
2022-09-10T02:48:09.031Z,0.63
2022-09-10T02:53:13.371Z,0.60
2022-09-10T02:58:17.271Z,0.70
2022-09-10T03:03:21.307Z,0.60
2022-09-10T03:08:23.997Z,0.60
2022-09-10T03:13:28.710Z,0.60
2022-09-10T03:18:35.330Z,0.60
2022-09-10T03:23:40.312Z,0.60
2022-09-10T03:28:44.820Z,0.47
2022-09-10T03:33:51.161Z,0.60
2022-09-10T03:38:53.965Z,0.55
2022-09-10T03:43:57.547Z,0.68
2022-09-10T03:49:03.222Z,0.80
2022-09-10T03:54:08.335Z,0.50
2022-09-10T03:59:13.365Z,0.57
2022-09-10T04:04:17.807Z,0.57
2022-09-10T04:09:20.772Z,0.68
2022-09-10T04:14:23.471Z,0.73
2022-09-10T04:19:28.390Z,0.60
2022-09-10T04:24:31.689Z,0.80
2022-09-10T04:29:34.485Z,0.60
2022-09-10T04:34:38.535Z,0.85
2022-09-10T04:39:43.544Z,0.50
2022-09-10T04:44:46.349Z,0.70
2022-09-10T04:49:50.449Z,0.60
2022-09-10T04:54:53.532Z,0.50
2022-09-10T04:59:57.029Z,0.75
2022-09-10T05:05:01.419Z,0.60
2022-09-10T05:10:04.662Z,0.30
2022-09-10T05:15:09.957Z,0.60
2022-09-10T05:20:14.181Z,0.68
2022-09-10T05:25:24.454Z,0.63
2022-09-10T05:30:27.419Z,0.55
2022-09-10T05:35:31.979Z,0.60
2022-09-10T05:40:34.841Z,0.47
2022-09-10T05:45:37.997Z,0.50
2022-09-10T05:50:42.650Z,0.60
2022-09-10T05:55:46.068Z,0.50
2022-09-10T06:00:51.127Z,0.60
2022-09-10T06:05:55.796Z,0.60
2022-09-10T06:11:05.917Z,0.60
2022-09-10T06:16:15.994Z,0.40
2022-09-10T06:21:24.957Z,0.45
2022-09-10T06:26:30.308Z,0.50
2022-09-10T06:31:37.085Z,0.50
2022-09-10T06:36:41.476Z,0.60
2022-09-10T06:41:49.062Z,0.52
2022-09-10T06:47:46.320Z,0.50
2022-09-10T06:52:35.573Z,0.60
2022-09-10T06:57:41.133Z,0.95
2022-09-10T07:02:44.985Z,1.35
2022-09-10T07:07:49.689Z,0.40
2022-09-10T07:12:53.421Z,0.40
2022-09-10T07:17:57.582Z,0.57
2022-09-10T07:23:03.276Z,0.60
2022-09-10T07:28:06.937Z,0.90
2022-09-10T07:33:12.473Z,0.50
2022-09-10T07:38:20.719Z,0.50
2022-09-10T07:43:25.123Z,0.63
2022-09-10T07:48:30.467Z,0.50
2022-09-10T07:53:34.890Z,0.63
2022-09-10T07:58:40.728Z,0.50
2022-09-10T08:03:45.734Z,0.50
2022-09-10T08:08:52.887Z,0.50
2022-09-10T08:13:56.850Z,0.55
2022-09-10T08:19:03.427Z,0.40
2022-09-10T08:24:10.916Z,0.50
2022-09-10T08:29:16.731Z,0.40
2022-09-10T08:34:21.146Z,0.45
2022-09-10T08:39:35.807Z,0.60
2022-09-10T08:44:42.450Z,0.50
2022-09-10T08:49:47.245Z,0.60
2022-09-10T08:54:57.085Z,0.63
2022-09-10T09:00:01.425Z,0.55
2022-09-10T09:05:15.121Z,0.80
2022-09-10T09:10:30.163Z,0.43
2022-09-10T09:15:39.020Z,0.63
2022-09-10T09:20:46.467Z,0.50
2022-09-10T09:25:53.846Z,0.60
2022-09-10T09:30:59.315Z,0.50
2022-09-10T09:36:04.550Z,0.55
2022-09-10T09:41:17.630Z,0.40
2022-09-10T09:46:21.783Z,0.70
2022-09-10T09:51:30.869Z,0.50
2022-09-10T09:56:38.478Z,0.60
2022-09-10T10:01:42.783Z,0.52
2022-09-10T10:06:46.889Z,0.60
2022-09-10T10:11:52.598Z,0.50
2022-09-10T10:16:59.936Z,0.52
2022-09-10T10:22:21.565Z,0.50
2022-09-10T10:27:30.269Z,0.50
2022-09-10T10:32:39.629Z,0.70
2022-09-10T10:37:49.782Z,0.60
2022-09-10T10:42:56.322Z,0.50
2022-09-10T10:48:05.281Z,0.65
2022-09-10T10:53:22.714Z,0.70
2022-09-10T10:58:39.923Z,0.65
2022-09-10T11:03:44.789Z,0.50
2022-09-10T11:08:51.210Z,0.50
2022-09-10T11:13:57.959Z,0.60
2022-09-10T11:19:05.048Z,0.60
2022-09-10T11:24:16.974Z,0.70
2022-09-10T11:29:32.645Z,0.52
2022-09-10T11:34:40.421Z,0.70
2022-09-10T11:39:47.479Z,0.43
2022-09-10T11:44:58.776Z,0.43
2022-09-10T11:50:04.578Z,0.60
2022-09-10T11:55:09.939Z,0.40
2022-09-10T12:00:16.685Z,0.50
2022-09-10T12:05:24.920Z,0.40
2022-09-10T12:10:32.856Z,0.47
2022-09-10T12:15:38.186Z,0.43
2022-09-10T12:20:44.373Z,0.40
2022-09-10T12:25:58.561Z,0.75
2022-09-10T12:31:03.821Z,0.47
2022-09-10T12:36:06.945Z,0.50
2022-09-10T12:41:10.822Z,0.55
2022-09-10T12:46:22.746Z,0.70
2022-09-10T12:51:32.989Z,0.50
2022-09-10T12:56:53.397Z,0.85
2022-09-10T13:01:58.058Z,0.57
2022-09-10T13:07:02.353Z,0.70
2022-09-10T13:12:17.646Z,0.55
2022-09-10T13:17:39.051Z,0.47
2022-09-10T13:23:03.981Z,0.57
2022-09-10T13:28:43.737Z,0.70
2022-09-10T13:34:10.403Z,0.40
2022-09-10T13:39:39.025Z,0.45
2022-09-10T13:44:55.497Z,0.47
2022-09-10T13:50:02.419Z,0.40
2022-09-10T13:55:08.086Z,0.50
2022-09-10T14:00:21.740Z,0.40
2022-09-10T14:05:33.982Z,0.40
2022-09-10T14:10:49.451Z,0.40
2022-09-10T14:15:54.237Z,0.40
2022-09-10T14:20:58.536Z,0.50
2022-09-10T14:26:11.950Z,0.50
2022-09-10T14:31:21.602Z,0.40
2022-09-10T14:36:33.409Z,0.20
2022-09-10T14:41:36.771Z,0.40
2022-09-10T14:46:51.531Z,0.30
2022-09-10T14:51:55.978Z,0.57
2022-09-10T14:56:59.563Z,0.52
2022-09-10T15:02:03.595Z,0.30
2022-09-10T15:07:07.842Z,0.40
2022-09-10T15:12:14.925Z,0.38
2022-09-10T15:17:18.646Z,0.60
2022-09-10T15:22:24.772Z,0.45
2022-09-10T15:27:27.459Z,0.73
2022-09-10T15:32:30.718Z,0.60
2022-09-10T15:37:34.773Z,0.52
2022-09-10T15:42:37.600Z,1.92
2022-09-10T15:47:42.195Z,0.50
2022-09-10T15:52:46.235Z,0.50
2022-09-10T15:57:49.861Z,0.52
2022-09-10T16:02:53.836Z,0.50
2022-09-10T16:07:57.881Z,0.80
2022-09-10T16:13:00.577Z,0.80
2022-09-10T16:18:03.290Z,1.00
2022-09-10T16:23:07.641Z,0.90
2022-09-10T16:28:10.600Z,0.90
2022-09-10T16:33:13.837Z,0.73
2022-09-10T16:38:18.020Z,0.90
2022-09-10T16:43:20.917Z,1.55
2022-09-10T16:48:23.833Z,2.40
2022-09-10T16:53:27.973Z,1.48
2022-09-10T16:58:35.664Z,1.27
2022-09-10T17:03:40.792Z,1.10
2022-09-10T17:08:45.154Z,1.15
2022-09-10T17:13:48.087Z,1.45
2022-09-10T17:18:56.760Z,1.55
2022-09-10T17:24:01.275Z,1.00
2022-09-10T17:29:08.616Z,1.27
2022-09-10T17:34:13.372Z,1.20
2022-09-10T17:39:18.145Z,1.48
2022-09-10T17:44:20.844Z,1.90
2022-09-10T17:49:24.381Z,2.13
2022-09-10T17:54:28.508Z,2.38
2022-09-10T17:59:31.302Z,2.88
2022-09-10T18:04:34.183Z,2.00
2022-09-10T18:09:38.243Z,3.88
2022-09-10T18:14:40.830Z,1.33
2022-09-10T18:19:43.424Z,0.90
2022-09-10T18:24:47.453Z,0.80
2022-09-10T18:29:50.060Z,1.08
2022-09-10T18:34:52.967Z,1.73
2022-09-10T18:39:58.512Z,2.97
2022-09-10T18:45:01.424Z,2.72
2022-09-10T18:50:04.242Z,2.35
2022-09-10T18:55:09.417Z,3.00
2022-09-10T19:00:13.118Z,1.63
2022-09-10T19:05:15.950Z,1.20
2022-09-10T19:10:21.391Z,1.13
2022-09-10T19:15:24.037Z,1.08
2022-09-10T19:20:26.654Z,1.13
2022-09-10T19:25:30.919Z,1.30
2022-09-10T19:30:38.220Z,1.15
2022-09-10T19:35:40.958Z,1.13
2022-09-10T19:40:45.095Z,1.20
2022-09-10T19:45:47.960Z,1.15
2022-09-10T19:50:50.706Z,1.23
2022-09-10T19:55:54.695Z,0.90
2022-09-10T20:00:57.356Z,0.75
2022-09-10T20:06:00.281Z,0.90
2022-09-10T20:11:06.105Z,0.88
2022-09-10T20:16:09.736Z,1.00
2022-09-10T20:21:14.084Z,1.40
2022-09-10T20:26:19.604Z,1.70
2022-09-10T20:31:23.933Z,1.77
2022-09-10T20:36:28.408Z,1.95
2022-09-10T20:41:32.470Z,2.70
2022-09-10T20:46:35.656Z,2.67
2022-09-10T20:51:40.367Z,7.57
2022-09-10T20:56:44.761Z,4.13
2022-09-10T21:01:50.780Z,2.67
2022-09-10T21:06:54.062Z,2.00
2022-09-10T21:11:58.030Z,1.55
2022-09-10T21:17:01.144Z,1.60
2022-09-10T21:22:03.814Z,1.70
2022-09-10T21:27:07.799Z,1.30
2022-09-10T21:32:10.991Z,1.15
2022-09-10T21:37:13.623Z,1.30
2022-09-10T21:42:17.635Z,0.90
2022-09-10T21:47:20.228Z,1.05
2022-09-10T21:52:22.864Z,1.50
2022-09-10T21:57:27.147Z,2.42
2022-09-10T22:02:31.547Z,2.25
2022-09-10T22:07:34.312Z,1.77
2022-09-10T22:12:38.260Z,1.63
2022-09-10T22:17:41.329Z,1.73
2022-09-10T22:22:44.159Z,1.48
2022-09-10T22:27:49.232Z,0.98
2022-09-10T22:32:51.815Z,1.02
2022-09-10T22:37:56.758Z,1.40
2022-09-10T22:43:01.038Z,1.27
2022-09-10T22:48:03.872Z,1.08
2022-09-10T22:53:06.447Z,1.20
2022-09-10T22:58:10.395Z,0.95
2022-09-10T23:03:13.015Z,1.02
2022-09-10T23:08:17.002Z,1.20
2022-09-10T23:13:21.247Z,1.33
2022-09-10T23:18:23.850Z,1.27
2022-09-10T23:23:27.015Z,1.38
2022-09-10T23:28:30.951Z,1.05
2022-09-10T23:33:33.623Z,1.40
2022-09-10T23:38:36.386Z,1.45
2022-09-10T23:43:40.682Z,1.55
2022-09-10T23:48:43.601Z,1.25
2022-09-10T23:53:47.003Z,1.23
2022-09-10T23:58:51.621Z,1.45
